sensor_id;sensor_type;location;lat;lon;timestamp;P1;durP1;ratioP1;P2;durP2;ratioP2
22318;SDS011;11327;52.334;9.506;2024-01-10T00:01:28;20.15;;;10.40;;
22318;SDS011;11327;52.334;9.506;2024-01-10T00:04:49;18.48;;;9.55;;
22318;SDS011;11327;52.334;9.506;2024-01-10T00:08:10;16.73;;;9.13;;
22318;SDS011;11327;52.334;9.506;2024-01-10T00:11:31;19.30;;;10.05;;
22318;SDS011;11327;52.334;9.506;2024-01-10T00:14:52;20.27;;;10.05;;
22318;SDS011;11327;52.334;9.506;2024-01-10T00:18:12;20.57;;;10.70;;
22318;SDS011;11327;52.334;9.506;2024-01-10T00:21:34;19.57;;;10.43;;
22318;SDS011;11327;52.334;9.506;2024-01-10T00:24:56;19.85;;;10.88;;
22318;SDS011;11327;52.334;9.506;2024-01-10T00:28:17;17.55;;;9.85;;
22318;SDS011;11327;52.334;9.506;2024-01-10T00:31:38;18.95;;;9.55;;
22318;SDS011;11327;52.334;9.506;2024-01-10T00:35:00;17.62;;;9.65;;
22318;SDS011;11327;52.334;9.506;2024-01-10T00:38:20;20.43;;;9.78;;
22318;SDS011;11327;52.334;9.506;2024-01-10T00:41:41;16.23;;;9.15;;
22318;SDS011;11327;52.334;9.506;2024-01-10T00:45:02;19.12;;;9.00;;
22318;SDS011;11327;52.334;9.506;2024-01-10T00:48:23;17.85;;;8.83;;
22318;SDS011;11327;52.334;9.506;2024-01-10T00:51:43;20.37;;;9.88;;
22318;SDS011;11327;52.334;9.506;2024-01-10T00:55:04;18.90;;;9.73;;
22318;SDS011;11327;52.334;9.506;2024-01-10T00:58:25;17.82;;;9.50;;
22318;SDS011;11327;52.334;9.506;2024-01-10T01:01:46;18.02;;;9.28;;
22318;SDS011;11327;52.334;9.506;2024-01-10T01:05:07;18.60;;;8.75;;
22318;SDS011;11327;52.334;9.506;2024-01-10T01:08:28;17.35;;;9.23;;
22318;SDS011;11327;52.334;9.506;2024-01-10T01:11:48;18.90;;;9.00;;
22318;SDS011;11327;52.334;9.506;2024-01-10T01:15:09;17.42;;;9.35;;
22318;SDS011;11327;52.334;9.506;2024-01-10T01:18:30;19.40;;;10.10;;
22318;SDS011;11327;52.334;9.506;2024-01-10T01:21:51;16.20;;;8.93;;
22318;SDS011;11327;52.334;9.506;2024-01-10T01:25:11;17.40;;;10.00;;
22318;SDS011;11327;52.334;9.506;2024-01-10T01:28:32;18.07;;;9.23;;
22318;SDS011;11327;52.334;9.506;2024-01-10T01:31:53;18.02;;;9.38;;
22318;SDS011;11327;52.334;9.506;2024-01-10T01:35:14;18.27;;;9.28;;
22318;SDS011;11327;52.334;9.506;2024-01-10T01:38:36;20.70;;;9.88;;
22318;SDS011;11327;52.334;9.506;2024-01-10T01:41:56;15.20;;;8.48;;
22318;SDS011;11327;52.334;9.506;2024-01-10T01:45:18;18.67;;;9.03;;
22318;SDS011;11327;52.334;9.506;2024-01-10T01:48:39;17.65;;;9.33;;
22318;SDS011;11327;52.334;9.506;2024-01-10T01:52:00;17.95;;;9.08;;
22318;SDS011;11327;52.334;9.506;2024-01-10T01:55:22;17.87;;;9.08;;
22318;SDS011;11327;52.334;9.506;2024-01-10T01:58:44;17.57;;;9.28;;
22318;SDS011;11327;52.334;9.506;2024-01-10T02:02:06;20.70;;;9.10;;
22318;SDS011;11327;52.334;9.506;2024-01-10T02:05:28;18.30;;;9.43;;
22318;SDS011;11327;52.334;9.506;2024-01-10T02:08:48;20.02;;;9.78;;
22318;SDS011;11327;52.334;9.506;2024-01-10T02:12:09;17.87;;;9.20;;
22318;SDS011;11327;52.334;9.506;2024-01-10T02:15:30;18.80;;;9.75;;
22318;SDS011;11327;52.334;9.506;2024-01-10T02:18:51;18.02;;;9.50;;
22318;SDS011;11327;52.334;9.506;2024-01-10T02:22:12;18.23;;;9.35;;
22318;SDS011;11327;52.334;9.506;2024-01-10T02:25:34;18.67;;;8.98;;
22318;SDS011;11327;52.334;9.506;2024-01-10T02:28:55;23.35;;;10.23;;
22318;SDS011;11327;52.334;9.506;2024-01-10T02:32:15;18.23;;;9.40;;
22318;SDS011;11327;52.334;9.506;2024-01-10T02:35:36;22.65;;;9.78;;
22318;SDS011;11327;52.334;9.506;2024-01-10T02:38:57;20.70;;;10.15;;
22318;SDS011;11327;52.334;9.506;2024-01-10T02:42:17;16.35;;;8.93;;
22318;SDS011;11327;52.334;9.506;2024-01-10T02:45:38;17.12;;;10.00;;
22318;SDS011;11327;52.334;9.506;2024-01-10T02:48:59;20.23;;;10.03;;
22318;SDS011;11327;52.334;9.506;2024-01-10T02:52:20;18.02;;;9.45;;
22318;SDS011;11327;52.334;9.506;2024-01-10T02:55:41;22.25;;;9.98;;
22318;SDS011;11327;52.334;9.506;2024-01-10T02:59:03;19.95;;;9.88;;
22318;SDS011;11327;52.334;9.506;2024-01-10T03:02:24;17.62;;;9.53;;
22318;SDS011;11327;52.334;9.506;2024-01-10T03:05:45;19.17;;;9.90;;
22318;SDS011;11327;52.334;9.506;2024-01-10T03:09:06;21.10;;;10.43;;
22318;SDS011;11327;52.334;9.506;2024-01-10T03:12:26;17.57;;;9.28;;
22318;SDS011;11327;52.334;9.506;2024-01-10T03:15:47;17.32;;;9.73;;
22318;SDS011;11327;52.334;9.506;2024-01-10T03:19:08;18.15;;;10.00;;
22318;SDS011;11327;52.334;9.506;2024-01-10T03:22:30;20.72;;;9.90;;
22318;SDS011;11327;52.334;9.506;2024-01-10T03:25:52;18.80;;;10.25;;
22318;SDS011;11327;52.334;9.506;2024-01-10T03:29:13;19.90;;;10.00;;
22318;SDS011;11327;52.334;9.506;2024-01-10T03:32:34;20.68;;;9.85;;
22318;SDS011;11327;52.334;9.506;2024-01-10T03:35:55;18.85;;;10.68;;
22318;SDS011;11327;52.334;9.506;2024-01-10T03:39:15;19.17;;;9.73;;
22318;SDS011;11327;52.334;9.506;2024-01-10T03:42:36;19.25;;;9.95;;
22318;SDS011;11327;52.334;9.506;2024-01-10T03:45:57;22.27;;;10.80;;
22318;SDS011;11327;52.334;9.506;2024-01-10T03:49:18;19.60;;;10.78;;
22318;SDS011;11327;52.334;9.506;2024-01-10T03:52:39;20.70;;;10.53;;
22318;SDS011;11327;52.334;9.506;2024-01-10T03:55:59;19.55;;;10.13;;
22318;SDS011;11327;52.334;9.506;2024-01-10T03:59:24;20.25;;;10.60;;
22318;SDS011;11327;52.334;9.506;2024-01-10T04:02:45;20.80;;;10.70;;
22318;SDS011;11327;52.334;9.506;2024-01-10T04:06:05;19.85;;;10.90;;
22318;SDS011;11327;52.334;9.506;2024-01-10T04:09:26;22.70;;;11.63;;
22318;SDS011;11327;52.334;9.506;2024-01-10T04:12:47;24.47;;;11.48;;
22318;SDS011;11327;52.334;9.506;2024-01-10T04:16:08;21.50;;;11.88;;
22318;SDS011;11327;52.334;9.506;2024-01-10T04:19:28;22.75;;;11.95;;
22318;SDS011;11327;52.334;9.506;2024-01-10T04:22:49;23.38;;;11.90;;
22318;SDS011;11327;52.334;9.506;2024-01-10T04:26:10;24.87;;;11.40;;
22318;SDS011;11327;52.334;9.506;2024-01-10T04:29:30;23.30;;;12.40;;
22318;SDS011;11327;52.334;9.506;2024-01-10T04:32:51;24.12;;;11.88;;
22318;SDS011;11327;52.334;9.506;2024-01-10T04:36:12;23.40;;;12.07;;
22318;SDS011;11327;52.334;9.506;2024-01-10T04:39:33;25.70;;;12.07;;
22318;SDS011;11327;52.334;9.506;2024-01-10T04:42:54;23.38;;;12.85;;
22318;SDS011;11327;52.334;9.506;2024-01-10T04:46:15;24.25;;;12.25;;
22318;SDS011;11327;52.334;9.506;2024-01-10T04:49:36;25.80;;;11.97;;
22318;SDS011;11327;52.334;9.506;2024-01-10T04:52:57;25.02;;;13.25;;
22318;SDS011;11327;52.334;9.506;2024-01-10T04:56:17;23.62;;;12.55;;
22318;SDS011;11327;52.334;9.506;2024-01-10T04:59:38;25.55;;;11.97;;
22318;SDS011;11327;52.334;9.506;2024-01-10T05:02:59;25.12;;;12.18;;
22318;SDS011;11327;52.334;9.506;2024-01-10T05:06:20;23.75;;;12.75;;
22318;SDS011;11327;52.334;9.506;2024-01-10T05:09:40;23.95;;;12.53;;
22318;SDS011;11327;52.334;9.506;2024-01-10T05:13:01;26.60;;;13.15;;
22318;SDS011;11327;52.334;9.506;2024-01-10T05:16:22;25.48;;;13.15;;
22318;SDS011;11327;52.334;9.506;2024-01-10T05:19:42;24.57;;;12.60;;
22318;SDS011;11327;52.334;9.506;2024-01-10T05:23:03;27.60;;;12.60;;
22318;SDS011;11327;52.334;9.506;2024-01-10T05:26:24;23.38;;;12.73;;
22318;SDS011;11327;52.334;9.506;2024-01-10T05:29:45;27.55;;;13.25;;
22318;SDS011;11327;52.334;9.506;2024-01-10T05:33:07;24.57;;;12.55;;
22318;SDS011;11327;52.334;9.506;2024-01-10T05:36:28;25.52;;;12.58;;
22318;SDS011;11327;52.334;9.506;2024-01-10T05:39:49;23.40;;;12.93;;
22318;SDS011;11327;52.334;9.506;2024-01-10T05:43:10;27.95;;;13.08;;
22318;SDS011;11327;52.334;9.506;2024-01-10T05:46:30;23.00;;;12.63;;
22318;SDS011;11327;52.334;9.506;2024-01-10T05:49:51;23.45;;;13.68;;
22318;SDS011;11327;52.334;9.506;2024-01-10T05:53:13;26.80;;;12.53;;
22318;SDS011;11327;52.334;9.506;2024-01-10T05:56:36;23.55;;;13.10;;
22318;SDS011;11327;52.334;9.506;2024-01-10T05:59:56;26.02;;;14.20;;
22318;SDS011;11327;52.334;9.506;2024-01-10T06:03:17;26.62;;;13.58;;
22318;SDS011;11327;52.334;9.506;2024-01-10T06:06:38;28.67;;;13.43;;
22318;SDS011;11327;52.334;9.506;2024-01-10T06:09:59;29.82;;;14.28;;
22318;SDS011;11327;52.334;9.506;2024-01-10T06:13:19;27.65;;;13.55;;
22318;SDS011;11327;52.334;9.506;2024-01-10T06:16:40;31.45;;;14.50;;
22318;SDS011;11327;52.334;9.506;2024-01-10T06:20:01;29.85;;;14.13;;
22318;SDS011;11327;52.334;9.506;2024-01-10T06:23:24;29.45;;;14.35;;
22318;SDS011;11327;52.334;9.506;2024-01-10T06:26:44;30.45;;;14.13;;
22318;SDS011;11327;52.334;9.506;2024-01-10T06:30:05;30.97;;;15.35;;
22318;SDS011;11327;52.334;9.506;2024-01-10T06:33:28;32.42;;;14.80;;
22318;SDS011;11327;52.334;9.506;2024-01-10T06:36:48;30.35;;;15.43;;
22318;SDS011;11327;52.334;9.506;2024-01-10T06:40:10;28.85;;;14.45;;
22318;SDS011;11327;52.334;9.506;2024-01-10T06:43:31;30.77;;;15.00;;
22318;SDS011;11327;52.334;9.506;2024-01-10T06:46:51;27.87;;;14.30;;
22318;SDS011;11327;52.334;9.506;2024-01-10T06:53:53;27.20;;;14.07;;
22318;SDS011;11327;52.334;9.506;2024-01-10T06:57:13;28.92;;;14.53;;
22318;SDS011;11327;52.334;9.506;2024-01-10T07:00:34;28.30;;;15.08;;
22318;SDS011;11327;52.334;9.506;2024-01-10T07:03:55;26.02;;;14.28;;
22318;SDS011;11327;52.334;9.506;2024-01-10T07:07:16;29.72;;;14.50;;
22318;SDS011;11327;52.334;9.506;2024-01-10T07:10:37;26.50;;;14.35;;
22318;SDS011;11327;52.334;9.506;2024-01-10T07:13:58;29.57;;;15.10;;
22318;SDS011;11327;52.334;9.506;2024-01-10T07:17:19;33.33;;;15.98;;
22318;SDS011;11327;52.334;9.506;2024-01-10T07:20:42;30.00;;;15.35;;
22318;SDS011;11327;52.334;9.506;2024-01-10T07:24:03;33.60;;;15.23;;
22318;SDS011;11327;52.334;9.506;2024-01-10T07:27:24;31.12;;;15.90;;
22318;SDS011;11327;52.334;9.506;2024-01-10T07:30:45;33.10;;;15.72;;
22318;SDS011;11327;52.334;9.506;2024-01-10T07:34:06;31.73;;;15.95;;
22318;SDS011;11327;52.334;9.506;2024-01-10T07:37:27;37.35;;;16.75;;
22318;SDS011;11327;52.334;9.506;2024-01-10T07:40:48;39.50;;;18.15;;
22318;SDS011;11327;52.334;9.506;2024-01-10T07:44:09;36.68;;;16.75;;
22318;SDS011;11327;52.334;9.506;2024-01-10T07:47:30;35.50;;;17.05;;
22318;SDS011;11327;52.334;9.506;2024-01-10T07:50:51;34.95;;;17.37;;
22318;SDS011;11327;52.334;9.506;2024-01-10T07:54:13;37.30;;;17.48;;
22318;SDS011;11327;52.334;9.506;2024-01-10T07:57:33;36.60;;;17.67;;
22318;SDS011;11327;52.334;9.506;2024-01-10T08:00:54;37.40;;;18.20;;
22318;SDS011;11327;52.334;9.506;2024-01-10T08:04:15;38.28;;;18.82;;
22318;SDS011;11327;52.334;9.506;2024-01-10T08:07:36;36.13;;;17.50;;
22318;SDS011;11327;52.334;9.506;2024-01-10T08:10:57;40.75;;;18.82;;
22318;SDS011;11327;52.334;9.506;2024-01-10T08:14:18;39.13;;;18.77;;
22318;SDS011;11327;52.334;9.506;2024-01-10T08:17:39;42.03;;;20.17;;
22318;SDS011;11327;52.334;9.506;2024-01-10T08:20:59;42.58;;;19.45;;
22318;SDS011;11327;52.334;9.506;2024-01-10T08:24:20;43.75;;;19.52;;
22318;SDS011;11327;52.334;9.506;2024-01-10T08:27:41;38.23;;;20.37;;
22318;SDS011;11327;52.334;9.506;2024-01-10T08:31:02;38.88;;;19.32;;
22318;SDS011;11327;52.334;9.506;2024-01-10T08:34:23;40.73;;;18.98;;
22318;SDS011;11327;52.334;9.506;2024-01-10T08:37:44;38.85;;;19.27;;
22318;SDS011;11327;52.334;9.506;2024-01-10T08:41:09;37.58;;;18.40;;
22318;SDS011;11327;52.334;9.506;2024-01-10T08:44:32;42.73;;;18.85;;
22318;SDS011;11327;52.334;9.506;2024-01-10T08:47:52;39.60;;;19.20;;
22318;SDS011;11327;52.334;9.506;2024-01-10T08:51:14;41.48;;;20.10;;
22318;SDS011;11327;52.334;9.506;2024-01-10T08:54:36;41.42;;;19.45;;
22318;SDS011;11327;52.334;9.506;2024-01-10T08:57:57;36.00;;;18.82;;
22318;SDS011;11327;52.334;9.506;2024-01-10T09:01:18;44.45;;;22.40;;
22318;SDS011;11327;52.334;9.506;2024-01-10T09:04:39;53.08;;;25.30;;
22318;SDS011;11327;52.334;9.506;2024-01-10T09:08:00;53.60;;;28.40;;
22318;SDS011;11327;52.334;9.506;2024-01-10T09:11:21;51.15;;;24.50;;
22318;SDS011;11327;52.334;9.506;2024-01-10T09:14:41;47.80;;;22.50;;
22318;SDS011;11327;52.334;9.506;2024-01-10T09:18:02;59.13;;;26.27;;
22318;SDS011;11327;52.334;9.506;2024-01-10T09:21:26;64.47;;;31.30;;
22318;SDS011;11327;52.334;9.506;2024-01-10T09:24:47;63.55;;;28.87;;
22318;SDS011;11327;52.334;9.506;2024-01-10T09:28:08;54.85;;;26.82;;
22318;SDS011;11327;52.334;9.506;2024-01-10T09:31:28;47.93;;;23.70;;
22318;SDS011;11327;52.334;9.506;2024-01-10T09:34:49;43.23;;;21.60;;
22318;SDS011;11327;52.334;9.506;2024-01-10T09:38:10;42.70;;;20.95;;
22318;SDS011;11327;52.334;9.506;2024-01-10T09:41:31;46.58;;;21.55;;
22318;SDS011;11327;52.334;9.506;2024-01-10T09:44:55;50.17;;;23.27;;
22318;SDS011;11327;52.334;9.506;2024-01-10T09:48:16;49.05;;;23.02;;
22318;SDS011;11327;52.334;9.506;2024-01-10T09:51:37;46.45;;;22.82;;
22318;SDS011;11327;52.334;9.506;2024-01-10T09:54:58;52.10;;;24.80;;
22318;SDS011;11327;52.334;9.506;2024-01-10T09:58:19;47.30;;;22.95;;
22318;SDS011;11327;52.334;9.506;2024-01-10T10:01:40;46.68;;;23.55;;
22318;SDS011;11327;52.334;9.506;2024-01-10T10:05:07;49.08;;;22.90;;
22318;SDS011;11327;52.334;9.506;2024-01-10T10:08:28;48.63;;;23.02;;
22318;SDS011;11327;52.334;9.506;2024-01-10T10:11:55;51.48;;;23.25;;
22318;SDS011;11327;52.334;9.506;2024-01-10T10:15:17;45.90;;;23.07;;
22318;SDS011;11327;52.334;9.506;2024-01-10T10:18:39;48.55;;;23.62;;
22318;SDS011;11327;52.334;9.506;2024-01-10T10:22:08;45.75;;;22.55;;
22318;SDS011;11327;52.334;9.506;2024-01-10T10:25:50;45.03;;;22.80;;
22318;SDS011;11327;52.334;9.506;2024-01-10T10:28:54;50.33;;;23.12;;
22318;SDS011;11327;52.334;9.506;2024-01-10T10:32:16;47.13;;;22.55;;
22318;SDS011;11327;52.334;9.506;2024-01-10T10:35:38;49.60;;;22.85;;
22318;SDS011;11327;52.334;9.506;2024-01-10T10:39:00;44.67;;;22.98;;
22318;SDS011;11327;52.334;9.506;2024-01-10T10:42:24;45.73;;;23.18;;
22318;SDS011;11327;52.334;9.506;2024-01-10T10:45:48;50.03;;;22.90;;
22318;SDS011;11327;52.334;9.506;2024-01-10T10:49:11;45.92;;;22.67;;
22318;SDS011;11327;52.334;9.506;2024-01-10T10:52:33;51.55;;;24.40;;
22318;SDS011;11327;52.334;9.506;2024-01-10T10:55:55;47.17;;;23.50;;
22318;SDS011;11327;52.334;9.506;2024-01-10T10:59:18;60.50;;;29.45;;
22318;SDS011;11327;52.334;9.506;2024-01-10T11:02:40;49.40;;;23.95;;
22318;SDS011;11327;52.334;9.506;2024-01-10T11:06:03;48.08;;;25.08;;
22318;SDS011;11327;52.334;9.506;2024-01-10T11:09:24;42.83;;;23.00;;
22318;SDS011;11327;52.334;9.506;2024-01-10T11:16:34;46.88;;;23.87;;
22318;SDS011;11327;52.334;9.506;2024-01-10T11:27:16;45.92;;;23.25;;
22318;SDS011;11327;52.334;9.506;2024-01-10T11:30:36;49.77;;;24.45;;
22318;SDS011;11327;52.334;9.506;2024-01-10T11:34:00;48.80;;;23.57;;
22318;SDS011;11327;52.334;9.506;2024-01-10T11:37:21;48.33;;;23.47;;
22318;SDS011;11327;52.334;9.506;2024-01-10T11:40:46;45.33;;;22.35;;
22318;SDS011;11327;52.334;9.506;2024-01-10T11:47:39;50.43;;;24.37;;
22318;SDS011;11327;52.334;9.506;2024-01-10T11:51:01;47.65;;;24.30;;
22318;SDS011;11327;52.334;9.506;2024-01-10T11:58:08;41.92;;;22.98;;
22318;SDS011;11327;52.334;9.506;2024-01-10T12:01:30;46.73;;;22.65;;
22318;SDS011;11327;52.334;9.506;2024-01-10T12:04:52;48.35;;;24.45;;
22318;SDS011;11327;52.334;9.506;2024-01-10T12:08:13;44.93;;;23.50;;
22318;SDS011;11327;52.334;9.506;2024-01-10T12:11:37;48.25;;;24.10;;
22318;SDS011;11327;52.334;9.506;2024-01-10T12:14:59;49.15;;;24.12;;
22318;SDS011;11327;52.334;9.506;2024-01-10T12:18:20;42.90;;;23.27;;
22318;SDS011;11327;52.334;9.506;2024-01-10T12:21:42;43.52;;;22.65;;
22318;SDS011;11327;52.334;9.506;2024-01-10T12:25:06;44.13;;;23.62;;
22318;SDS011;11327;52.334;9.506;2024-01-10T12:28:27;44.55;;;23.25;;
22318;SDS011;11327;52.334;9.506;2024-01-10T12:31:47;43.55;;;23.83;;
22318;SDS011;11327;52.334;9.506;2024-01-10T12:35:08;43.48;;;23.18;;
22318;SDS011;11327;52.334;9.506;2024-01-10T12:38:29;44.85;;;22.95;;
22318;SDS011;11327;52.334;9.506;2024-01-10T12:41:51;45.33;;;23.52;;
22318;SDS011;11327;52.334;9.506;2024-01-10T12:45:21;47.13;;;23.92;;
22318;SDS011;11327;52.334;9.506;2024-01-10T12:48:42;45.38;;;23.92;;
22318;SDS011;11327;52.334;9.506;2024-01-10T12:52:03;42.73;;;23.25;;
22318;SDS011;11327;52.334;9.506;2024-01-10T12:55:26;44.65;;;23.40;;
22318;SDS011;11327;52.334;9.506;2024-01-10T12:58:48;48.48;;;24.40;;
22318;SDS011;11327;52.334;9.506;2024-01-10T13:02:09;50.05;;;24.37;;
22318;SDS011;11327;52.334;9.506;2024-01-10T13:05:29;44.00;;;23.30;;
22318;SDS011;11327;52.334;9.506;2024-01-10T13:08:50;46.60;;;24.27;;
22318;SDS011;11327;52.334;9.506;2024-01-10T13:12:11;44.40;;;23.27;;
22318;SDS011;11327;52.334;9.506;2024-01-10T13:15:32;44.42;;;23.30;;
22318;SDS011;11327;52.334;9.506;2024-01-10T13:18:52;48.25;;;23.40;;
22318;SDS011;11327;52.334;9.506;2024-01-10T13:22:15;44.08;;;22.82;;
22318;SDS011;11327;52.334;9.506;2024-01-10T13:25:38;45.55;;;23.18;;
22318;SDS011;11327;52.334;9.506;2024-01-10T13:28:58;47.53;;;23.65;;
22318;SDS011;11327;52.334;9.506;2024-01-10T13:32:19;45.95;;;23.22;;
22318;SDS011;11327;52.334;9.506;2024-01-10T13:35:40;46.05;;;23.70;;
22318;SDS011;11327;52.334;9.506;2024-01-10T13:39:01;45.60;;;23.62;;
22318;SDS011;11327;52.334;9.506;2024-01-10T13:42:23;54.33;;;25.35;;
22318;SDS011;11327;52.334;9.506;2024-01-10T13:45:44;50.55;;;25.12;;
22318;SDS011;11327;52.334;9.506;2024-01-10T13:49:05;47.48;;;24.25;;
22318;SDS011;11327;52.334;9.506;2024-01-10T13:52:26;46.23;;;23.07;;
22318;SDS011;11327;52.334;9.506;2024-01-10T13:55:47;47.80;;;23.02;;
22318;SDS011;11327;52.334;9.506;2024-01-10T13:59:09;46.95;;;22.35;;
22318;SDS011;11327;52.334;9.506;2024-01-10T14:02:30;46.23;;;23.38;;
22318;SDS011;11327;52.334;9.506;2024-01-10T14:05:51;44.93;;;22.45;;
22318;SDS011;11327;52.334;9.506;2024-01-10T14:09:12;42.65;;;23.00;;
22318;SDS011;11327;52.334;9.506;2024-01-10T14:12:32;38.92;;;21.62;;
22318;SDS011;11327;52.334;9.506;2024-01-10T14:15:53;47.95;;;22.62;;
22318;SDS011;11327;52.334;9.506;2024-01-10T14:19:14;48.35;;;22.27;;
22318;SDS011;11327;52.334;9.506;2024-01-10T14:22:37;44.23;;;21.77;;
22318;SDS011;11327;52.334;9.506;2024-01-10T14:25:58;44.15;;;21.48;;
22318;SDS011;11327;52.334;9.506;2024-01-10T14:29:20;44.73;;;21.52;;
22318;SDS011;11327;52.334;9.506;2024-01-10T14:32:42;43.65;;;21.35;;
22318;SDS011;11327;52.334;9.506;2024-01-10T14:36:03;40.88;;;21.00;;
22318;SDS011;11327;52.334;9.506;2024-01-10T14:39:25;43.08;;;21.10;;
22318;SDS011;11327;52.334;9.506;2024-01-10T14:42:45;41.68;;;21.25;;
22318;SDS011;11327;52.334;9.506;2024-01-10T14:46:06;43.30;;;20.43;;
22318;SDS011;11327;52.334;9.506;2024-01-10T14:49:27;44.73;;;21.02;;
22318;SDS011;11327;52.334;9.506;2024-01-10T14:52:47;42.50;;;20.55;;
22318;SDS011;11327;52.334;9.506;2024-01-10T14:56:08;42.25;;;20.52;;
22318;SDS011;11327;52.334;9.506;2024-01-10T14:59:29;40.92;;;20.02;;
22318;SDS011;11327;52.334;9.506;2024-01-10T15:02:49;42.65;;;21.25;;
22318;SDS011;11327;52.334;9.506;2024-01-10T15:06:12;42.65;;;21.25;;
22318;SDS011;11327;52.334;9.506;2024-01-10T15:09:32;43.95;;;20.85;;
22318;SDS011;11327;52.334;9.506;2024-01-10T15:12:55;42.62;;;21.25;;
22318;SDS011;11327;52.334;9.506;2024-01-10T15:16:16;40.00;;;21.73;;
22318;SDS011;11327;52.334;9.506;2024-01-10T15:19:37;47.10;;;23.35;;
22318;SDS011;11327;52.334;9.506;2024-01-10T15:22:57;59.08;;;29.32;;
22318;SDS011;11327;52.334;9.506;2024-01-10T15:26:18;47.50;;;25.25;;
22318;SDS011;11327;52.334;9.506;2024-01-10T15:29:40;48.48;;;24.95;;
22318;SDS011;11327;52.334;9.506;2024-01-10T15:33:00;41.90;;;22.58;;
22318;SDS011;11327;52.334;9.506;2024-01-10T15:36:21;41.75;;;22.07;;
22318;SDS011;11327;52.334;9.506;2024-01-10T15:39:42;43.30;;;23.27;;
22318;SDS011;11327;52.334;9.506;2024-01-10T15:43:03;44.63;;;24.65;;
22318;SDS011;11327;52.334;9.506;2024-01-10T15:46:24;46.08;;;23.50;;
22318;SDS011;11327;52.334;9.506;2024-01-10T15:49:45;47.80;;;23.65;;
22318;SDS011;11327;52.334;9.506;2024-01-10T15:53:07;49.67;;;25.72;;
22318;SDS011;11327;52.334;9.506;2024-01-10T15:56:28;44.55;;;24.45;;
22318;SDS011;11327;52.334;9.506;2024-01-10T15:59:48;45.17;;;23.85;;
22318;SDS011;11327;52.334;9.506;2024-01-10T16:03:09;46.23;;;25.65;;
22318;SDS011;11327;52.334;9.506;2024-01-10T16:06:33;48.55;;;25.97;;
22318;SDS011;11327;52.334;9.506;2024-01-10T16:09:55;43.95;;;24.47;;
22318;SDS011;11327;52.334;9.506;2024-01-10T16:13:15;47.93;;;24.87;;
22318;SDS011;11327;52.334;9.506;2024-01-10T16:16:36;46.65;;;22.82;;
22318;SDS011;11327;52.334;9.506;2024-01-10T16:19:57;37.85;;;20.77;;
22318;SDS011;11327;52.334;9.506;2024-01-10T16:23:18;43.75;;;22.17;;
22318;SDS011;11327;52.334;9.506;2024-01-10T16:26:39;47.08;;;23.02;;
22318;SDS011;11327;52.334;9.506;2024-01-10T16:29:59;43.28;;;23.02;;
22318;SDS011;11327;52.334;9.506;2024-01-10T16:33:21;43.50;;;21.15;;
22318;SDS011;11327;52.334;9.506;2024-01-10T16:36:42;47.33;;;23.15;;
22318;SDS011;11327;52.334;9.506;2024-01-10T16:40:03;46.60;;;23.55;;
22318;SDS011;11327;52.334;9.506;2024-01-10T16:43:25;56.23;;;28.45;;
22318;SDS011;11327;52.334;9.506;2024-01-10T16:46:47;57.25;;;30.65;;
22318;SDS011;11327;52.334;9.506;2024-01-10T16:50:08;62.80;;;31.25;;
22318;SDS011;11327;52.334;9.506;2024-01-10T16:53:29;59.00;;;29.92;;
22318;SDS011;11327;52.334;9.506;2024-01-10T16:56:50;65.05;;;32.67;;
22318;SDS011;11327;52.334;9.506;2024-01-10T17:00:11;59.05;;;31.82;;
22318;SDS011;11327;52.334;9.506;2024-01-10T17:03:33;54.67;;;27.00;;
22318;SDS011;11327;52.334;9.506;2024-01-10T17:06:53;55.43;;;26.97;;
22318;SDS011;11327;52.334;9.506;2024-01-10T17:10:14;54.13;;;26.33;;
22318;SDS011;11327;52.334;9.506;2024-01-10T17:13:35;56.13;;;27.32;;
22318;SDS011;11327;52.334;9.506;2024-01-10T17:16:56;54.05;;;26.00;;
22318;SDS011;11327;52.334;9.506;2024-01-10T17:20:16;52.58;;;26.23;;
22318;SDS011;11327;52.334;9.506;2024-01-10T17:23:37;47.83;;;24.52;;
22318;SDS011;11327;52.334;9.506;2024-01-10T17:26:58;53.30;;;25.80;;
22318;SDS011;11327;52.334;9.506;2024-01-10T17:30:19;61.13;;;32.53;;
22318;SDS011;11327;52.334;9.506;2024-01-10T17:33:40;62.55;;;32.30;;
22318;SDS011;11327;52.334;9.506;2024-01-10T17:37:00;55.25;;;27.75;;
22318;SDS011;11327;52.334;9.506;2024-01-10T17:40:22;52.30;;;25.88;;
22318;SDS011;11327;52.334;9.506;2024-01-10T17:43:43;55.67;;;27.85;;
22318;SDS011;11327;52.334;9.506;2024-01-10T17:47:04;53.78;;;27.02;;
22318;SDS011;11327;52.334;9.506;2024-01-10T17:50:25;52.33;;;25.52;;
22318;SDS011;11327;52.334;9.506;2024-01-10T17:53:47;56.45;;;27.25;;
22318;SDS011;11327;52.334;9.506;2024-01-10T17:57:09;57.75;;;28.40;;
22318;SDS011;11327;52.334;9.506;2024-01-10T18:00:30;57.62;;;29.75;;
22318;SDS011;11327;52.334;9.506;2024-01-10T18:03:50;54.77;;;27.60;;
22318;SDS011;11327;52.334;9.506;2024-01-10T18:07:11;57.45;;;27.35;;
22318;SDS011;11327;52.334;9.506;2024-01-10T18:10:32;55.60;;;26.45;;
22318;SDS011;11327;52.334;9.506;2024-01-10T18:13:53;53.83;;;27.27;;
22318;SDS011;11327;52.334;9.506;2024-01-10T18:17:14;56.92;;;28.70;;
22318;SDS011;11327;52.334;9.506;2024-01-10T18:20:34;53.33;;;26.35;;
22318;SDS011;11327;52.334;9.506;2024-01-10T18:23:55;51.90;;;26.25;;
22318;SDS011;11327;52.334;9.506;2024-01-10T18:27:18;48.42;;;25.05;;
22318;SDS011;11327;52.334;9.506;2024-01-10T18:30:39;51.02;;;25.88;;
22318;SDS011;11327;52.334;9.506;2024-01-10T18:34:00;52.88;;;26.30;;
22318;SDS011;11327;52.334;9.506;2024-01-10T18:37:21;51.73;;;25.72;;
22318;SDS011;11327;52.334;9.506;2024-01-10T18:40:43;54.40;;;26.95;;
22318;SDS011;11327;52.334;9.506;2024-01-10T18:44:05;50.58;;;26.65;;
22318;SDS011;11327;52.334;9.506;2024-01-10T18:47:26;50.52;;;26.73;;
22318;SDS011;11327;52.334;9.506;2024-01-10T18:50:47;60.33;;;30.50;;
22318;SDS011;11327;52.334;9.506;2024-01-10T18:54:07;58.92;;;30.62;;
22318;SDS011;11327;52.334;9.506;2024-01-10T18:57:28;55.20;;;28.45;;
22318;SDS011;11327;52.334;9.506;2024-01-10T19:00:49;60.03;;;29.12;;
22318;SDS011;11327;52.334;9.506;2024-01-10T19:04:10;56.80;;;28.17;;
22318;SDS011;11327;52.334;9.506;2024-01-10T19:07:31;56.23;;;28.87;;
22318;SDS011;11327;52.334;9.506;2024-01-10T19:10:51;58.85;;;29.57;;
22318;SDS011;11327;52.334;9.506;2024-01-10T19:14:12;54.93;;;28.47;;
22318;SDS011;11327;52.334;9.506;2024-01-10T19:17:33;55.50;;;28.30;;
22318;SDS011;11327;52.334;9.506;2024-01-10T19:20:55;55.03;;;25.97;;
22318;SDS011;11327;52.334;9.506;2024-01-10T19:24:16;51.95;;;26.50;;
22318;SDS011;11327;52.334;9.506;2024-01-10T19:27:37;58.73;;;28.07;;
22318;SDS011;11327;52.334;9.506;2024-01-10T19:30:58;53.45;;;26.40;;
22318;SDS011;11327;52.334;9.506;2024-01-10T19:34:19;55.85;;;27.50;;
22318;SDS011;11327;52.334;9.506;2024-01-10T19:37:40;57.40;;;27.10;;
22318;SDS011;11327;52.334;9.506;2024-01-10T19:41:00;56.58;;;27.52;;
22318;SDS011;11327;52.334;9.506;2024-01-10T19:44:21;56.02;;;26.73;;
22318;SDS011;11327;52.334;9.506;2024-01-10T19:47:42;54.10;;;25.40;;
22318;SDS011;11327;52.334;9.506;2024-01-10T19:51:03;52.50;;;25.50;;
22318;SDS011;11327;52.334;9.506;2024-01-10T19:54:24;48.10;;;24.23;;
22318;SDS011;11327;52.334;9.506;2024-01-10T19:57:44;52.20;;;24.20;;
22318;SDS011;11327;52.334;9.506;2024-01-10T20:01:05;49.27;;;23.05;;